createdAt,value
2018-12-24T00:00:56.520Z,43.30
2018-12-24T00:06:33.002Z,47.30
2018-12-24T00:09:43.104Z,43.87
2018-12-24T00:12:15.627Z,39.63
2018-12-24T00:14:48.034Z,40.33
2018-12-24T00:17:39.328Z,39.77
2018-12-24T00:20:11.648Z,41.53
2018-12-24T00:22:43.964Z,43.50
2018-12-24T00:28:32.215Z,39.73
2018-12-24T00:33:49.729Z,37.57
2018-12-24T00:36:22.786Z,39.90
2018-12-24T00:38:55.182Z,43.17
2018-12-24T00:41:27.435Z,41.17
2018-12-24T00:44:00.072Z,37.63
2018-12-24T00:46:51.739Z,36.40
2018-12-24T00:49:43.511Z,36.77
2018-12-24T00:58:21.929Z,35.13
2018-12-24T01:03:59.534Z,38.23
2018-12-24T01:06:31.916Z,39.00
2018-12-24T01:09:06.052Z,37.77
2018-12-24T01:11:47.860Z,40.27
2018-12-24T01:14:55.924Z,37.80
2018-12-24T01:18:01.137Z,36.50
2018-12-24T01:20:52.836Z,34.67
2018-12-24T01:23:44.518Z,34.27
2018-12-24T01:26:36.241Z,34.23
2018-12-24T01:29:27.962Z,32.70
2018-12-24T01:32:19.637Z,31.83
2018-12-24T01:38:08.072Z,30.93
2018-12-24T01:41:00.433Z,32.17
2018-12-24T01:49:19.771Z,30.70
2018-12-24T01:51:52.105Z,30.70
2018-12-24T01:54:24.751Z,31.07
2018-12-24T01:56:57.062Z,31.50
2018-12-24T01:59:29.372Z,32.93
2018-12-24T02:02:01.735Z,34.60
2018-12-24T02:04:34.114Z,33.97
2018-12-24T02:07:06.495Z,33.27
2018-12-24T02:09:39.181Z,32.23
2018-12-24T02:12:30.894Z,31.23
2018-12-24T02:15:03.218Z,29.90
2018-12-24T02:17:35.545Z,29.00
2018-12-24T02:20:08.069Z,30.47
2018-12-24T02:22:40.703Z,29.73
2018-12-24T02:25:15.414Z,27.23
2018-12-24T02:34:31.283Z,25.37
2018-12-24T02:40:06.332Z,27.60
2018-12-24T02:42:38.735Z,26.40
2018-12-24T02:45:11.007Z,28.57
2018-12-24T02:48:02.701Z,27.17
2018-12-24T02:50:34.961Z,28.53
2018-12-24T02:53:07.310Z,28.67
2018-12-24T02:58:35.176Z,29.03
2018-12-24T03:01:26.870Z,30.13
2018-12-24T03:04:20.575Z,27.70
2018-12-24T03:06:55.934Z,28.97
2018-12-24T03:09:28.266Z,28.80
2018-12-24T03:12:19.959Z,27.47
2018-12-24T03:15:11.639Z,26.80
2018-12-24T03:17:44.081Z,25.97
2018-12-24T03:20:16.393Z,24.53
2018-12-24T03:22:48.701Z,23.50
2018-12-24T03:25:21.013Z,23.23
2018-12-24T03:27:53.332Z,24.70
2018-12-24T03:33:29.634Z,24.67
2018-12-24T03:36:01.989Z,24.70
2018-12-24T03:38:36.771Z,24.40
2018-12-24T03:41:09.093Z,26.13
2018-12-24T03:43:42.057Z,25.90
2018-12-24T03:46:14.325Z,24.30
2018-12-24T03:48:57.960Z,26.63
2018-12-24T03:51:30.236Z,25.23
2018-12-24T03:57:07.080Z,25.93
2018-12-24T03:59:39.403Z,27.07
2018-12-24T04:05:22.178Z,25.43
2018-12-24T04:07:54.416Z,26.47
2018-12-24T04:10:26.758Z,27.67
2018-12-24T04:12:59.016Z,27.23
2018-12-24T04:15:50.340Z,27.07
2018-12-24T04:18:41.395Z,27.03
2018-12-24T04:21:33.177Z,26.90
2018-12-24T04:24:05.490Z,25.60
2018-12-24T04:26:37.789Z,24.90
2018-12-24T04:29:10.118Z,25.73
2018-12-24T04:31:42.380Z,26.67
2018-12-24T04:34:14.671Z,25.90
2018-12-24T04:40:10.184Z,25.30
2018-12-24T04:42:42.759Z,24.33
2018-12-24T04:45:34.587Z,24.57
2018-12-24T04:48:06.889Z,24.80
2018-12-24T04:50:39.159Z,23.23
2018-12-24T04:53:15.308Z,24.83
2018-12-24T04:55:47.615Z,22.87
2018-12-24T04:58:19.998Z,23.07
2018-12-24T05:00:52.335Z,23.03
2018-12-24T05:03:24.722Z,22.53
2018-12-24T05:05:57.017Z,22.80
2018-12-24T05:08:29.706Z,23.33
2018-12-24T05:11:21.039Z,21.23
2018-12-24T05:14:13.175Z,22.03
2018-12-24T05:16:45.449Z,25.37
2018-12-24T05:19:36.540Z,24.03
2018-12-24T05:25:28.249Z,21.33
2018-12-24T05:28:12.733Z,22.73
2018-12-24T05:30:45.064Z,23.80
2018-12-24T05:33:36.802Z,22.80
2018-12-24T05:36:09.113Z,24.57
2018-12-24T05:42:18.376Z,23.40
2018-12-24T05:44:51.111Z,24.97
2018-12-24T05:47:23.726Z,23.73
2018-12-24T05:52:59.256Z,22.70
2018-12-24T05:55:50.945Z,22.13
2018-12-24T05:58:23.686Z,20.97
2018-12-24T06:00:56.056Z,20.63
2018-12-24T06:03:28.397Z,20.07
2018-12-24T06:06:00.778Z,19.67
2018-12-24T06:08:33.534Z,19.73
2018-12-24T06:11:05.912Z,19.80
2018-12-24T06:13:38.203Z,19.80
2018-12-24T06:16:11.546Z,18.97
2018-12-24T06:18:43.903Z,19.47
2018-12-24T06:21:16.175Z,18.10
2018-12-24T06:23:48.539Z,18.37
2018-12-24T06:26:33.842Z,19.03
2018-12-24T06:29:06.233Z,17.47
2018-12-24T06:31:38.540Z,16.77
2018-12-24T06:34:11.310Z,16.93
2018-12-24T06:36:43.591Z,15.77
2018-12-24T06:39:15.904Z,17.20
2018-12-24T06:41:48.178Z,15.60
2018-12-24T06:44:20.510Z,16.30
2018-12-24T06:46:52.775Z,17.27
2018-12-24T06:49:25.107Z,15.13
2018-12-24T06:51:57.799Z,16.70
2018-12-24T06:57:47.176Z,17.67
2018-12-24T07:00:19.478Z,17.27
2018-12-24T07:02:54.350Z,17.17
2018-12-24T07:05:46.120Z,17.10
2018-12-24T07:08:18.840Z,17.10
2018-12-24T07:10:51.205Z,16.77
2018-12-24T07:13:23.853Z,16.80
2018-12-24T07:15:56.159Z,16.23
2018-12-24T07:18:28.431Z,17.33
2018-12-24T07:21:03.600Z,16.60
2018-12-24T07:23:55.306Z,15.87
2018-12-24T07:26:47.032Z,16.33
2018-12-24T07:29:38.676Z,16.60
2018-12-24T07:32:36.294Z,16.27
2018-12-24T07:35:27.980Z,15.60
2018-12-24T07:38:00.463Z,16.10
2018-12-24T07:40:32.763Z,16.53
2018-12-24T07:46:23.125Z,14.60
2018-12-24T07:48:55.592Z,14.80
2018-12-24T07:51:27.862Z,15.17
2018-12-24T07:54:21.080Z,15.67
2018-12-24T07:57:12.733Z,14.77
2018-12-24T08:03:21.138Z,14.97
2018-12-24T08:06:12.790Z,16.60
2018-12-24T08:14:37.131Z,16.13
2018-12-24T08:17:11.233Z,16.13
2018-12-24T08:20:02.938Z,16.40
2018-12-24T08:22:55.008Z,17.13
2018-12-24T08:25:48.955Z,21.57
2018-12-24T08:28:46.553Z,22.90
2018-12-24T08:31:18.881Z,21.50
2018-12-24T08:33:51.196Z,19.30
2018-12-24T08:36:23.818Z,19.40
2018-12-24T08:38:56.161Z,17.50
2018-12-24T08:41:28.470Z,16.37
2018-12-24T08:44:01.187Z,16.87
2018-12-24T08:46:33.578Z,20.07
2018-12-24T08:49:25.029Z,26.27
2018-12-24T08:51:57.373Z,29.37
2018-12-24T08:54:29.642Z,22.30
2018-12-24T08:57:01.905Z,20.57
2018-12-24T08:59:34.234Z,18.57
2018-12-24T09:02:06.500Z,18.53
2018-12-24T09:04:39.124Z,19.47
2018-12-24T09:07:36.034Z,20.13
2018-12-24T09:10:08.308Z,25.93
2018-12-24T09:12:59.794Z,24.53
2018-12-24T09:15:32.122Z,23.60
2018-12-24T09:18:23.097Z,21.23
2018-12-24T09:23:58.754Z,19.57
2018-12-24T09:29:14.503Z,16.60
2018-12-24T09:34:30.375Z,16.97
2018-12-24T09:37:21.415Z,18.17
2018-12-24T09:40:15.238Z,19.10
2018-12-24T09:43:07.000Z,22.52
2018-12-24T09:45:41.040Z,20.93
2018-12-24T09:48:13.303Z,21.33
2018-12-24T09:50:45.626Z,22.15
2018-12-24T09:53:37.331Z,21.77
2018-12-24T09:56:12.422Z,22.00
2018-12-24T09:59:22.467Z,24.40
2018-12-24T10:01:54.862Z,21.73
2018-12-24T10:05:04.788Z,17.37
2018-12-24T10:07:56.514Z,18.57
2018-12-24T10:13:32.192Z,18.92
2018-12-24T10:16:04.517Z,19.62
2018-12-24T10:18:36.878Z,17.25
2018-12-24T10:25:04.298Z,17.52
2018-12-24T10:27:38.525Z,16.23
2018-12-24T10:30:11.236Z,17.60
2018-12-24T10:32:43.529Z,19.10
2018-12-24T10:35:15.843Z,18.23
2018-12-24T10:37:48.110Z,16.52
2018-12-24T10:43:40.276Z,15.38
2018-12-24T10:46:50.825Z,19.98
2018-12-24T10:49:23.139Z,21.05
2018-12-24T10:51:55.479Z,19.75
2018-12-24T10:54:28.118Z,19.23
2018-12-24T10:57:20.187Z,17.15
2018-12-24T11:00:12.720Z,15.18
2018-12-24T11:02:45.138Z,17.98
2018-12-24T11:05:17.541Z,18.40
2018-12-24T11:10:33.726Z,16.45
2018-12-24T11:13:06.119Z,16.45
2018-12-24T11:15:38.516Z,15.68
2018-12-24T11:18:10.881Z,16.40
2018-12-24T11:21:01.934Z,16.65
2018-12-24T11:26:37.376Z,17.73
2018-12-24T11:29:29.395Z,19.30
2018-12-24T11:32:02.462Z,17.87
2018-12-24T11:34:35.267Z,19.40
2018-12-24T11:37:07.767Z,21.77
2018-12-24T11:39:40.295Z,21.65
2018-12-24T11:42:12.630Z,19.42
2018-12-24T11:44:44.963Z,17.32
2018-12-24T11:47:17.262Z,17.45
2018-12-24T11:49:49.600Z,18.10
2018-12-24T11:55:36.768Z,17.27
2018-12-24T11:58:50.640Z,20.40
2018-12-24T12:01:34.695Z,32.45
2018-12-24T12:04:26.400Z,16.57
2018-12-24T12:07:18.092Z,14.87
2018-12-24T12:10:09.949Z,16.05
2018-12-24T12:12:42.299Z,15.03
2018-12-24T12:15:14.766Z,14.53
2018-12-24T12:17:47.137Z,14.83
2018-12-24T12:20:19.520Z,15.30
2018-12-24T12:22:51.948Z,15.58
2018-12-24T12:25:38.502Z,13.93
2018-12-24T12:28:36.885Z,14.28
2018-12-24T12:43:28.923Z,15.72
2018-12-24T13:12:49.477Z,16.97
2018-12-24T13:43:09.367Z,16.93
2018-12-24T14:25:22.213Z,9.30
2018-12-24T15:34:48.353Z,8.40
2018-12-24T15:37:20.696Z,8.28
2018-12-24T15:39:53.427Z,8.08
2018-12-24T15:42:25.796Z,10.85
2018-12-24T15:44:58.145Z,9.13
2018-12-24T15:47:30.497Z,9.05
2018-12-24T15:50:02.825Z,9.08
2018-12-24T15:52:47.934Z,9.60
2018-12-24T15:58:42.960Z,16.02
2018-12-24T16:14:15.263Z,13.55
2018-12-24T16:59:08.639Z,13.05
2018-12-24T17:01:41.482Z,13.83
2018-12-24T17:04:13.672Z,11.97
2018-12-24T17:06:45.983Z,12.35
2018-12-24T17:09:18.127Z,14.23
2018-12-24T17:11:52.252Z,19.57
2018-12-24T17:14:24.524Z,15.85
2018-12-24T17:16:56.584Z,26.12
2018-12-24T17:19:28.752Z,17.67
2018-12-24T17:22:00.980Z,16.75
2018-12-24T17:24:34.191Z,17.62
2018-12-24T17:27:06.126Z,21.23
2018-12-24T17:29:38.151Z,137.43
2018-12-24T17:32:10.307Z,33.92
2018-12-24T17:34:42.365Z,26.70
2018-12-24T17:37:14.598Z,32.50
2018-12-24T17:39:46.710Z,16.80
2018-12-24T17:42:18.930Z,16.82
2018-12-24T17:44:50.941Z,21.02
2018-12-24T17:47:23.369Z,20.62
2018-12-24T17:49:55.540Z,15.63
2018-12-24T17:52:27.602Z,15.83
2018-12-24T17:54:59.514Z,15.72
2018-12-24T17:57:34.084Z,16.57
2018-12-24T18:00:09.189Z,19.55
2018-12-24T18:02:41.121Z,21.07
2018-12-24T18:05:13.018Z,21.20
2018-12-24T18:07:44.924Z,29.87
2018-12-24T18:10:17.203Z,25.57
2018-12-24T18:12:49.289Z,25.90
2018-12-24T18:15:21.123Z,23.87
2018-12-24T18:17:53.020Z,27.35
2018-12-24T18:20:25.498Z,31.60
2018-12-24T18:22:57.345Z,35.10
2018-12-24T18:25:29.267Z,33.92
2018-12-24T18:28:01.135Z,34.43
2018-12-24T18:30:33.521Z,30.75
2018-12-24T18:33:05.588Z,31.05
2018-12-24T18:35:37.433Z,29.15
2018-12-24T18:38:09.517Z,29.23
2018-12-24T18:40:41.989Z,30.80
2018-12-24T18:43:13.885Z,37.80
2018-12-24T18:45:46.211Z,37.73
2018-12-24T18:48:18.137Z,36.60
2018-12-24T18:50:52.212Z,30.85
2018-12-24T18:53:24.272Z,26.37
2018-12-24T18:55:56.601Z,25.92
2018-12-24T18:58:28.590Z,26.52
2018-12-24T19:01:01.010Z,33.28
2018-12-24T19:03:32.930Z,50.78
2018-12-24T19:06:04.854Z,60.25
2018-12-24T19:08:37.057Z,65.22
2018-12-24T19:11:11.364Z,51.63
2018-12-24T19:13:44.512Z,53.92
2018-12-24T19:16:16.542Z,45.90
2018-12-24T19:18:48.945Z,49.58
2018-12-24T19:21:20.921Z,52.53
2018-12-24T19:23:53.018Z,45.50
2018-12-24T19:26:24.826Z,53.42
2018-12-24T19:28:56.815Z,50.48
2018-12-24T19:31:28.675Z,50.98
2018-12-24T19:34:01.211Z,66.02
2018-12-24T19:36:37.562Z,62.95
2018-12-24T19:39:09.535Z,61.13
2018-12-24T19:41:41.392Z,55.45
2018-12-24T19:44:16.018Z,55.03
2018-12-24T19:46:47.905Z,56.15
2018-12-24T19:49:19.788Z,50.90
2018-12-24T19:51:51.687Z,106.00
2018-12-24T19:54:23.624Z,90.83
2018-12-24T19:56:55.467Z,72.00
2018-12-24T19:59:27.395Z,61.35
2018-12-24T20:01:59.312Z,58.15
2018-12-24T20:04:31.223Z,59.58
2018-12-24T20:07:03.207Z,59.58
2018-12-24T20:09:35.052Z,62.67
2018-12-24T20:12:08.105Z,54.23
2018-12-24T20:14:40.864Z,52.27
2018-12-24T20:17:12.840Z,50.55
2018-12-24T20:19:44.724Z,48.42
2018-12-24T20:22:16.620Z,45.12
2018-12-24T20:24:48.502Z,44.15
2018-12-24T20:27:20.385Z,42.62
2018-12-24T20:29:52.231Z,43.23
2018-12-24T20:32:24.117Z,43.52
2018-12-24T20:34:56.019Z,43.70
2018-12-24T20:37:28.334Z,44.60
2018-12-24T20:40:00.550Z,40.45
2018-12-24T20:42:32.445Z,38.30
2018-12-24T20:45:04.464Z,41.73
2018-12-24T20:47:36.349Z,41.33
2018-12-24T20:50:08.247Z,39.70
2018-12-24T20:52:40.164Z,44.15
2018-12-24T20:55:13.700Z,44.58
2018-12-24T20:57:45.547Z,48.37
2018-12-24T21:00:17.483Z,44.00
2018-12-24T21:02:53.008Z,46.50
2018-12-24T21:05:24.947Z,40.67
2018-12-24T21:07:57.268Z,38.90
2018-12-24T21:10:29.329Z,41.37
2018-12-24T21:13:01.331Z,38.92
2018-12-24T21:15:33.254Z,39.42
2018-12-24T21:18:05.689Z,43.50
2018-12-24T21:20:37.508Z,44.60
2018-12-24T21:23:09.371Z,48.52
2018-12-24T21:25:41.277Z,51.87
2018-12-24T21:28:13.891Z,53.00
2018-12-24T21:30:45.798Z,52.27
2018-12-24T21:33:17.687Z,58.27
2018-12-24T21:35:49.593Z,59.70
2018-12-24T21:38:21.447Z,59.45
2018-12-24T21:40:53.347Z,60.43
2018-12-24T21:43:25.256Z,57.93
2018-12-24T21:45:57.298Z,54.73
2018-12-24T21:48:32.143Z,44.33
2018-12-24T21:51:04.066Z,44.85
2018-12-24T21:53:36.013Z,48.00
2018-12-24T21:56:07.894Z,48.77
2018-12-24T21:58:39.737Z,44.50
2018-12-24T22:01:11.625Z,49.80
2018-12-24T22:03:43.554Z,57.37
2018-12-24T22:06:15.449Z,85.73
2018-12-24T22:08:47.374Z,97.83
2018-12-24T22:11:19.346Z,52.80
2018-12-24T22:13:51.234Z,47.40
2018-12-24T22:16:23.088Z,44.93
2018-12-24T22:18:55.034Z,42.73
2018-12-24T22:21:26.983Z,43.43
2018-12-24T22:23:58.846Z,43.07
2018-12-24T22:26:30.768Z,42.53
2018-12-24T22:29:02.680Z,43.97
2018-12-24T22:31:34.566Z,43.30
2018-12-24T22:34:06.467Z,54.80
2018-12-24T22:36:41.520Z,57.90
2018-12-24T22:39:13.422Z,51.20
2018-12-24T22:41:45.261Z,57.87
2018-12-24T22:44:17.262Z,56.27
2018-12-24T22:46:50.520Z,63.47
2018-12-24T22:49:22.434Z,72.30
2018-12-24T22:51:54.494Z,71.30
2018-12-24T22:54:26.333Z,67.33
2018-12-24T22:56:58.611Z,65.30
2018-12-24T22:59:30.588Z,68.67
2018-12-24T23:02:02.835Z,83.47
2018-12-24T23:04:36.081Z,87.03
2018-12-24T23:07:07.922Z,82.37
2018-12-24T23:09:39.822Z,75.77
2018-12-24T23:12:12.851Z,77.00
2018-12-24T23:14:45.765Z,84.77
2018-12-24T23:17:17.716Z,73.17
2018-12-24T23:19:49.892Z,71.87
2018-12-24T23:22:21.788Z,74.27
2018-12-24T23:24:56.415Z,73.00
2018-12-24T23:27:28.415Z,68.37
2018-12-24T23:30:01.491Z,68.00
2018-12-24T23:32:34.015Z,59.87
2018-12-24T23:35:06.117Z,55.83
2018-12-24T23:37:37.984Z,58.70
2018-12-24T23:40:09.837Z,52.33
2018-12-24T23:42:41.748Z,53.30
2018-12-24T23:45:14.242Z,47.97
2018-12-24T23:47:46.142Z,46.50
2018-12-24T23:50:18.147Z,50.60
2018-12-24T23:52:51.707Z,52.90
2018-12-24T23:55:23.592Z,51.13
2018-12-24T23:57:55.498Z,43.63
